createdAt,value
2018-03-14T00:02:26.175Z,97.80
2018-03-14T00:04:53.015Z,97.80
2018-03-14T00:07:19.945Z,97.70
2018-03-14T00:09:46.803Z,97.70
2018-03-14T00:12:13.640Z,98.00
2018-03-14T00:14:40.514Z,98.10
2018-03-14T00:17:07.366Z,98.00
2018-03-14T00:19:34.214Z,97.80
2018-03-14T00:22:01.108Z,97.90
2018-03-14T00:24:27.937Z,97.80
2018-03-14T00:26:54.778Z,97.50
2018-03-14T00:29:22.367Z,97.50
2018-03-14T00:31:49.270Z,97.40
2018-03-14T00:34:16.156Z,97.50
2018-03-14T00:36:43.023Z,97.10
2018-03-14T00:39:09.863Z,97.30
2018-03-14T00:41:36.713Z,97.80
2018-03-14T00:44:03.592Z,97.70
2018-03-14T00:46:31.170Z,97.80
2018-03-14T00:48:58.022Z,97.70
2018-03-14T00:51:24.952Z,98.00
2018-03-14T00:53:51.808Z,97.80
2018-03-14T00:56:18.654Z,97.70
2018-03-14T00:58:45.534Z,97.80
2018-03-14T01:01:12.494Z,97.70
2018-03-14T01:03:40.102Z,97.50
2018-03-14T01:06:07.139Z,97.50
2018-03-14T01:08:33.980Z,97.40
2018-03-14T01:11:00.946Z,97.40
2018-03-14T01:13:27.815Z,97.80
2018-03-14T01:15:54.687Z,97.50
2018-03-14T01:18:22.303Z,97.60
2018-03-14T01:20:49.170Z,97.60
2018-03-14T01:23:16.027Z,97.70
2018-03-14T01:25:43.650Z,97.80
2018-03-14T01:28:10.498Z,97.70
2018-03-14T01:30:37.359Z,97.80
2018-03-14T01:33:04.234Z,97.80
2018-03-14T01:35:31.078Z,97.70
2018-03-14T01:37:58.189Z,97.60
2018-03-14T01:40:25.147Z,97.30
2018-03-14T01:42:51.969Z,97.10
2018-03-14T01:45:18.836Z,96.90
2018-03-14T01:47:46.421Z,97.40
2018-03-14T01:50:14.051Z,97.30
2018-03-14T01:52:40.918Z,97.30
2018-03-14T01:55:07.799Z,97.20
2018-03-14T01:57:34.637Z,97.50
2018-03-14T02:00:01.567Z,97.60
2018-03-14T02:02:28.426Z,98.00
2018-03-14T02:04:55.263Z,98.10
2018-03-14T02:07:22.165Z,98.00
2018-03-14T02:09:49.810Z,98.40
2018-03-14T02:12:16.669Z,98.40
2018-03-14T02:14:44.299Z,98.70
2018-03-14T02:17:11.179Z,98.60
2018-03-14T02:19:38.010Z,98.80
2018-03-14T02:22:04.845Z,99.10
2018-03-14T02:24:31.714Z,99.10
2018-03-14T02:26:59.323Z,98.50
2018-03-14T02:29:26.186Z,98.50
2018-03-14T02:31:53.092Z,98.60
2018-03-14T02:34:19.946Z,98.30
2018-03-14T02:36:59.033Z,98.40
2018-03-14T02:39:26.619Z,98.20
2018-03-14T02:41:53.537Z,98.20
2018-03-14T02:44:21.151Z,98.00
2018-03-14T02:46:47.981Z,98.00
2018-03-14T02:49:14.838Z,98.20
2018-03-14T02:51:41.698Z,97.80
2018-03-14T02:54:08.543Z,97.80
2018-03-14T02:56:35.395Z,98.00
2018-03-14T02:59:02.210Z,97.60
2018-03-14T03:01:29.102Z,97.50
2018-03-14T03:03:56.706Z,97.70
2018-03-14T03:06:23.559Z,97.60
2018-03-14T03:08:50.432Z,97.30
2018-03-14T03:11:17.262Z,97.60
2018-03-14T03:13:44.098Z,97.70
2018-03-14T03:16:10.895Z,97.70
2018-03-14T03:18:38.462Z,97.70
2018-03-14T03:21:05.370Z,97.70
2018-03-14T03:23:32.942Z,98.30
2018-03-14T03:25:59.786Z,98.00
2018-03-14T03:28:27.346Z,97.50
2018-03-14T03:30:54.976Z,97.50
2018-03-14T03:33:21.859Z,97.40
2018-03-14T03:35:49.439Z,97.90
2018-03-14T03:38:16.981Z,97.60
2018-03-14T03:40:43.906Z,97.60
2018-03-14T03:43:10.734Z,97.20
2018-03-14T03:45:37.557Z,97.00
2018-03-14T03:48:04.403Z,96.90
2018-03-14T03:50:31.250Z,97.10
2018-03-14T03:52:58.103Z,96.60
2018-03-14T03:55:24.950Z,96.70
2018-03-14T03:57:51.786Z,96.60
2018-03-14T04:00:18.655Z,96.40
2018-03-14T04:02:45.465Z,97.20
2018-03-14T04:05:12.315Z,97.10
2018-03-14T04:07:39.165Z,96.90
2018-03-14T04:10:06.091Z,97.50
2018-03-14T04:12:32.938Z,97.70
2018-03-14T04:14:59.759Z,97.70
2018-03-14T04:17:26.591Z,98.00
2018-03-14T04:19:53.499Z,98.10
2018-03-14T04:22:20.347Z,97.70
2018-03-14T04:24:47.925Z,97.40
2018-03-14T04:27:15.466Z,97.30
2018-03-14T04:29:43.198Z,97.20
2018-03-14T04:32:10.799Z,97.20
2018-03-14T04:34:38.359Z,97.20
2018-03-14T04:37:06.174Z,97.20
2018-03-14T04:39:33.015Z,97.20
2018-03-14T04:41:59.858Z,97.10
2018-03-14T04:44:26.744Z,97.20
2018-03-14T04:46:54.315Z,96.90
2018-03-14T04:49:21.189Z,96.90
2018-03-14T04:51:48.074Z,97.10
2018-03-14T04:54:15.651Z,97.30
2018-03-14T04:56:43.257Z,97.30
2018-03-14T04:59:10.087Z,97.30
2018-03-14T05:01:36.965Z,97.30
2018-03-14T05:04:03.810Z,97.00
2018-03-14T05:06:30.667Z,97.00
2018-03-14T05:08:57.483Z,96.90
2018-03-14T05:11:24.355Z,97.40
2018-03-14T05:13:51.241Z,97.50
2018-03-14T05:16:18.091Z,97.40
2018-03-14T05:18:44.927Z,97.50
2018-03-14T05:21:11.831Z,97.60
2018-03-14T05:23:38.651Z,98.40
2018-03-14T05:26:05.490Z,98.10
2018-03-14T05:28:32.342Z,98.60
2018-03-14T05:30:59.287Z,98.40
2018-03-14T05:33:26.113Z,98.30
2018-03-14T05:35:52.984Z,98.50
2018-03-14T05:38:19.812Z,98.60
2018-03-14T05:40:46.660Z,99.00
2018-03-14T05:43:13.498Z,99.10
2018-03-14T05:45:40.326Z,99.00
2018-03-14T05:48:07.159Z,99.20
2018-03-14T05:50:34.067Z,99.00
2018-03-14T05:53:00.890Z,98.80
2018-03-14T05:55:27.733Z,98.50
2018-03-14T05:57:55.339Z,98.00
2018-03-14T06:00:23.242Z,98.00
2018-03-14T06:02:50.059Z,98.00
2018-03-14T06:05:16.901Z,97.80
2018-03-14T06:07:44.534Z,97.40
2018-03-14T06:10:11.476Z,97.40
2018-03-14T06:12:38.346Z,98.00
2018-03-14T06:15:05.198Z,98.60
2018-03-14T06:17:32.062Z,99.30
2018-03-14T06:19:58.910Z,99.30
2018-03-14T06:22:25.751Z,98.90
2018-03-14T06:24:52.599Z,98.40
2018-03-14T06:27:20.214Z,97.80
2018-03-14T06:29:47.147Z,97.70
2018-03-14T06:32:14.696Z,96.90
2018-03-14T06:34:42.253Z,97.00
2018-03-14T06:37:09.857Z,96.60
2018-03-14T06:39:36.723Z,96.60
2018-03-14T06:42:04.326Z,96.60
2018-03-14T06:44:31.843Z,96.20
2018-03-14T06:46:59.458Z,96.80
2018-03-14T06:49:26.267Z,96.80
2018-03-14T06:51:53.134Z,96.70
2018-03-14T06:54:20.003Z,96.60
2018-03-14T06:56:46.871Z,96.20
2018-03-14T06:59:25.887Z,96.80
2018-03-14T07:02:04.933Z,96.40
2018-03-14T07:07:33.528Z,96.30
2018-03-14T07:10:00.379Z,96.60
2018-03-14T07:12:27.979Z,96.60
2018-03-14T07:14:54.830Z,96.60
2018-03-14T07:17:22.413Z,97.10
2018-03-14T07:19:49.278Z,97.10
2018-03-14T07:22:16.130Z,97.10
2018-03-14T07:24:43.721Z,96.30
2018-03-14T07:27:10.627Z,96.30
2018-03-14T07:29:37.446Z,96.50
2018-03-14T07:32:04.319Z,96.70
2018-03-14T07:34:31.170Z,97.10
2018-03-14T07:36:58.771Z,96.90
2018-03-14T07:39:25.629Z,96.90
2018-03-14T07:41:52.463Z,96.50
2018-03-14T07:44:19.343Z,96.50
2018-03-14T07:46:46.183Z,95.80
2018-03-14T07:49:13.030Z,96.10
2018-03-14T07:51:40.672Z,95.70
2018-03-14T07:54:07.504Z,95.70
2018-03-14T07:56:34.347Z,95.70
2018-03-14T07:59:01.266Z,94.60
2018-03-14T08:01:28.827Z,93.60
2018-03-14T08:03:55.668Z,93.70
2018-03-14T08:06:22.531Z,93.80
2018-03-14T08:08:49.391Z,93.70
2018-03-14T08:11:16.247Z,93.30
2018-03-14T08:13:43.224Z,93.70
2018-03-14T08:16:10.954Z,92.60
2018-03-14T08:18:37.774Z,92.60
2018-03-14T08:21:04.635Z,92.20
2018-03-14T08:23:31.495Z,91.50
2018-03-14T08:25:58.400Z,91.20
2018-03-14T08:28:25.190Z,90.90
2018-03-14T08:30:52.819Z,91.80
2018-03-14T08:33:19.668Z,91.70
2018-03-14T08:35:46.494Z,91.70
2018-03-14T08:38:13.378Z,91.40
2018-03-14T08:40:40.995Z,90.50
2018-03-14T08:43:07.827Z,90.50
2018-03-14T08:45:34.731Z,91.10
2018-03-14T08:48:02.340Z,88.30
2018-03-14T08:50:29.207Z,88.30
2018-03-14T08:52:56.070Z,87.30
2018-03-14T08:55:22.903Z,87.00
2018-03-14T08:57:49.771Z,87.00
2018-03-14T09:00:17.362Z,88.90
2018-03-14T09:02:44.213Z,88.90
2018-03-14T09:05:11.292Z,86.60
2018-03-14T09:07:38.171Z,85.40
2018-03-14T09:10:05.042Z,84.70
2018-03-14T09:12:31.970Z,84.30
2018-03-14T09:14:58.842Z,83.30
2018-03-14T09:17:25.683Z,84.00
2018-03-14T09:19:52.530Z,83.00
2018-03-14T09:22:19.362Z,83.30
2018-03-14T09:24:46.186Z,82.10
2018-03-14T09:27:13.111Z,82.30
2018-03-14T09:29:40.689Z,82.60
2018-03-14T09:32:07.539Z,82.60
2018-03-14T09:34:35.146Z,80.50
2018-03-14T09:37:02.020Z,80.40
2018-03-14T09:39:29.626Z,81.10
2018-03-14T09:41:56.487Z,81.20
2018-03-14T09:44:23.294Z,81.30
2018-03-14T09:46:50.174Z,78.10
2018-03-14T09:49:16.991Z,78.50
2018-03-14T09:51:43.830Z,78.60
2018-03-14T09:54:10.772Z,77.00
2018-03-14T09:56:38.317Z,78.10
2018-03-14T09:59:05.875Z,75.80
2018-03-14T10:01:32.751Z,75.80
2018-03-14T10:03:59.635Z,74.70
2018-03-14T10:06:26.450Z,73.90
2018-03-14T10:08:53.351Z,75.20
2018-03-14T10:11:20.190Z,71.20
2018-03-14T10:13:47.028Z,69.90
2018-03-14T10:16:13.900Z,69.10
2018-03-14T10:18:40.772Z,67.40
2018-03-14T10:21:07.594Z,68.10
2018-03-14T10:23:35.186Z,63.90
2018-03-14T10:26:02.023Z,64.10
2018-03-14T10:28:28.872Z,65.50
2018-03-14T10:30:55.752Z,63.30
2018-03-14T10:33:22.595Z,60.10
2018-03-14T10:35:49.446Z,58.80
2018-03-14T10:38:16.303Z,55.10
2018-03-14T10:40:43.154Z,53.60
2018-03-14T10:43:10.016Z,52.80
2018-03-14T10:45:36.842Z,50.90
2018-03-14T10:48:03.695Z,51.60
2018-03-14T10:50:30.567Z,52.60
2018-03-14T10:52:58.147Z,53.80
2018-03-14T10:55:25.727Z,54.20
2018-03-14T10:57:52.587Z,54.20
2018-03-14T11:00:25.462Z,55.00
2018-03-14T11:02:52.834Z,53.30
2018-03-14T11:05:19.964Z,49.40
2018-03-14T11:07:48.770Z,51.40
2018-03-14T11:10:16.465Z,51.70
2018-03-14T11:12:44.372Z,51.50
2018-03-14T11:15:11.620Z,51.40
2018-03-14T11:17:38.630Z,50.50
2018-03-14T11:20:05.838Z,50.30
2018-03-14T11:22:33.152Z,49.40
2018-03-14T11:25:00.335Z,50.20
2018-03-14T11:27:27.851Z,46.20
2018-03-14T11:29:54.808Z,48.30
2018-03-14T11:32:24.010Z,49.10
2018-03-14T11:34:51.908Z,47.00
2018-03-14T11:37:18.979Z,47.00
2018-03-14T11:39:46.767Z,42.30
2018-03-14T11:42:16.703Z,37.50
2018-03-14T11:44:44.457Z,36.90
2018-03-14T11:47:13.583Z,36.80
2018-03-14T11:49:40.606Z,31.30
2018-03-14T11:52:07.715Z,29.50
2018-03-14T11:54:34.808Z,29.70
2018-03-14T11:57:01.704Z,31.70
2018-03-14T11:59:28.740Z,32.50
2018-03-14T12:01:55.985Z,34.90
2018-03-14T12:04:23.771Z,37.40
2018-03-14T12:06:51.538Z,40.10
2018-03-14T12:09:18.511Z,40.10
2018-03-14T12:11:45.423Z,40.60
2018-03-14T12:14:12.452Z,39.40
2018-03-14T12:16:40.092Z,40.00
2018-03-14T12:19:07.052Z,39.40
2018-03-14T12:21:34.078Z,38.50
2018-03-14T12:24:01.782Z,38.70
2018-03-14T12:26:28.808Z,38.60
2018-03-14T12:28:55.746Z,38.80
2018-03-14T12:31:22.741Z,39.00
2018-03-14T12:33:49.831Z,38.40
2018-03-14T12:36:16.662Z,39.80
2018-03-14T12:38:43.488Z,38.90
2018-03-14T12:41:10.371Z,39.30
2018-03-14T12:43:37.210Z,39.90
2018-03-14T12:46:04.068Z,40.40
2018-03-14T12:48:30.929Z,42.20
2018-03-14T12:50:57.775Z,41.70
2018-03-14T12:53:24.627Z,42.10
2018-03-14T12:55:51.537Z,42.50
2018-03-14T12:58:19.159Z,40.90
2018-03-14T13:00:46.002Z,40.80
2018-03-14T13:03:12.891Z,41.00
2018-03-14T13:05:39.724Z,42.20
2018-03-14T13:08:07.311Z,42.70
2018-03-14T13:10:34.170Z,42.60
2018-03-14T13:13:01.075Z,42.90
2018-03-14T13:15:28.671Z,41.20
2018-03-14T13:17:55.502Z,41.10
2018-03-14T13:20:23.127Z,41.10
2018-03-14T13:22:49.959Z,41.10
2018-03-14T13:25:16.799Z,41.40
2018-03-14T13:27:43.671Z,40.20
2018-03-14T13:30:10.562Z,39.80
2018-03-14T13:32:37.423Z,41.50
2018-03-14T13:35:04.340Z,39.90
2018-03-14T13:37:31.147Z,36.40
2018-03-14T13:39:58.760Z,34.00
2018-03-14T13:42:25.654Z,33.90
2018-03-14T13:44:52.532Z,32.00
2018-03-14T13:47:19.394Z,32.20
2018-03-14T13:49:46.242Z,33.40
2018-03-14T13:52:13.074Z,34.90
2018-03-14T13:54:39.953Z,35.20
2018-03-14T13:57:06.827Z,36.50
2018-03-14T13:59:33.670Z,37.20
2018-03-14T14:02:00.557Z,37.00
2018-03-14T14:04:27.431Z,33.30
2018-03-14T14:06:54.368Z,28.10
2018-03-14T14:09:21.244Z,25.30
2018-03-14T14:11:48.306Z,22.70
2018-03-14T14:14:15.150Z,22.00
2018-03-14T14:16:41.991Z,20.90
2018-03-14T14:19:08.890Z,21.00
2018-03-14T14:21:35.734Z,23.00
2018-03-14T14:24:02.623Z,25.50
2018-03-14T14:26:29.466Z,28.40
2018-03-14T14:28:56.578Z,30.00
2018-03-14T14:31:23.514Z,30.50
2018-03-14T14:33:50.338Z,31.90
2018-03-14T14:36:17.234Z,32.40
2018-03-14T14:38:45.103Z,33.80
2018-03-14T14:41:12.240Z,33.50
2018-03-14T14:43:39.131Z,32.50
2018-03-14T14:46:05.979Z,33.90
2018-03-14T14:48:32.846Z,33.70
2018-03-14T14:51:00.445Z,35.20
2018-03-14T14:53:27.294Z,35.20
2018-03-14T14:55:54.882Z,36.10
2018-03-14T14:58:21.794Z,36.00
2018-03-14T15:00:48.739Z,36.10
2018-03-14T15:03:15.688Z,37.80
2018-03-14T15:05:43.235Z,38.20
2018-03-14T15:08:10.066Z,38.00
2018-03-14T15:10:37.175Z,38.60
2018-03-14T15:13:04.184Z,39.00
2018-03-14T15:15:31.229Z,39.00
2018-03-14T15:17:58.207Z,39.70
2018-03-14T15:20:25.203Z,40.90
2018-03-14T15:22:52.048Z,41.10
2018-03-14T15:25:18.947Z,45.10
2018-03-14T15:27:45.774Z,44.60
2018-03-14T15:30:12.615Z,42.90
2018-03-14T15:32:39.490Z,45.10
2018-03-14T15:35:06.351Z,46.50
2018-03-14T15:37:33.962Z,46.20
2018-03-14T15:40:00.986Z,46.20
2018-03-14T15:42:27.948Z,45.00
2018-03-14T15:44:54.860Z,45.70
2018-03-14T15:47:21.971Z,44.50
2018-03-14T15:49:48.871Z,44.40
2018-03-14T15:52:15.747Z,44.60
2018-03-14T15:54:42.800Z,44.40
2018-03-14T15:57:09.672Z,46.10
2018-03-14T15:59:36.495Z,45.40
2018-03-14T16:02:03.399Z,45.20
2018-03-14T16:04:30.238Z,44.80
2018-03-14T16:06:57.378Z,48.00
2018-03-14T16:09:24.279Z,48.90
2018-03-14T16:11:51.102Z,49.80
2018-03-14T16:14:17.996Z,50.10
2018-03-14T16:16:44.891Z,50.40
2018-03-14T16:19:11.859Z,52.60
2018-03-14T16:21:39.599Z,54.50
2018-03-14T16:24:06.511Z,54.50
2018-03-14T16:26:34.242Z,56.30
2018-03-14T16:29:01.240Z,56.30
2018-03-14T16:31:28.211Z,56.00
2018-03-14T16:33:55.220Z,55.30
2018-03-14T16:36:22.325Z,55.30
2018-03-14T16:38:49.227Z,54.90
2018-03-14T16:41:16.243Z,55.00
2018-03-14T16:43:43.187Z,54.90
2018-03-14T16:46:10.779Z,54.80
2018-03-14T16:48:37.639Z,54.80
2018-03-14T16:51:04.790Z,53.60
2018-03-14T16:53:31.794Z,53.20
2018-03-14T16:55:58.754Z,53.20
2018-03-14T16:58:25.632Z,53.70
2018-03-14T17:00:52.759Z,54.20
2018-03-14T17:03:20.387Z,55.30
2018-03-14T17:05:48.138Z,57.00
2018-03-14T17:08:15.103Z,57.00
2018-03-14T17:10:42.006Z,58.30
2018-03-14T17:13:09.015Z,58.60
2018-03-14T17:15:35.939Z,59.50
2018-03-14T17:18:02.795Z,58.60
2018-03-14T17:20:29.672Z,58.50
2018-03-14T17:22:56.551Z,59.50
2018-03-14T17:25:24.369Z,59.40
2018-03-14T17:27:51.246Z,60.00
2018-03-14T17:30:18.910Z,60.20
2018-03-14T17:32:45.770Z,60.10
2018-03-14T17:35:13.338Z,59.50
2018-03-14T17:37:40.211Z,59.50
2018-03-14T17:40:07.666Z,59.10
2018-03-14T17:42:34.511Z,59.40
2018-03-14T17:45:01.486Z,59.60
2018-03-14T17:47:28.439Z,60.40
2018-03-14T17:49:56.082Z,61.30
2018-03-14T17:52:22.904Z,61.20
2018-03-14T17:54:49.769Z,61.60
2018-03-14T17:57:16.611Z,62.10
2018-03-14T17:59:43.465Z,62.50
2018-03-14T18:02:10.336Z,62.40
2018-03-14T18:04:37.223Z,61.60
2018-03-14T18:07:04.810Z,60.80
2018-03-14T18:09:32.235Z,60.70
2018-03-14T18:11:59.126Z,60.80
2018-03-14T18:14:26.011Z,61.90
2018-03-14T18:16:52.875Z,62.70
2018-03-14T18:19:19.720Z,64.70
2018-03-14T18:21:46.712Z,63.00
2018-03-14T18:25:33.024Z,64.10
2018-03-14T18:27:59.931Z,64.90
2018-03-14T18:30:26.912Z,65.40
2018-03-14T18:32:54.487Z,66.30
2018-03-14T18:35:21.375Z,66.30
2018-03-14T18:37:48.220Z,66.30
2018-03-14T18:40:15.186Z,67.10
2018-03-14T18:42:42.786Z,68.70
2018-03-14T18:45:09.645Z,68.70
2018-03-14T18:47:36.522Z,69.20
2018-03-14T18:50:03.532Z,70.40
2018-03-14T18:52:30.618Z,71.60
2018-03-14T18:54:58.244Z,74.90
2018-03-14T18:57:25.099Z,74.80
2018-03-14T18:59:51.947Z,76.00
2018-03-14T19:02:18.960Z,75.90
2018-03-14T19:04:45.847Z,74.00
2018-03-14T19:07:13.448Z,74.60
2018-03-14T19:09:40.416Z,74.50
2018-03-14T19:12:07.295Z,74.40
2018-03-14T19:14:35.207Z,74.70
2018-03-14T19:17:02.752Z,76.10
2018-03-14T19:19:30.338Z,76.70
2018-03-14T19:21:58.901Z,76.60
2018-03-14T19:24:25.804Z,76.60
2018-03-14T19:26:52.651Z,78.30
2018-03-14T19:29:20.354Z,79.20
2018-03-14T19:31:47.448Z,79.20
2018-03-14T19:34:14.354Z,79.70
2018-03-14T19:36:41.795Z,80.50
2018-03-14T19:39:09.606Z,81.60
2018-03-14T19:41:37.295Z,82.60
2018-03-14T19:44:04.275Z,82.40
2018-03-14T19:46:32.132Z,82.90
2018-03-14T19:48:59.715Z,83.00
2018-03-14T19:51:26.600Z,82.90
2018-03-14T19:53:53.528Z,84.60
2018-03-14T19:56:22.305Z,86.90
2018-03-14T19:58:49.153Z,87.90
2018-03-14T20:01:17.425Z,88.40
2018-03-14T20:03:44.239Z,88.40
2018-03-14T20:06:11.116Z,88.60
2018-03-14T20:08:37.991Z,88.70
2018-03-14T20:11:05.632Z,88.30
2018-03-14T20:13:32.504Z,88.10
2018-03-14T20:15:59.342Z,88.00
2018-03-14T20:18:26.184Z,88.30
2018-03-14T20:20:53.010Z,88.50
2018-03-14T20:23:19.875Z,88.40
2018-03-14T20:25:47.491Z,88.00
2018-03-14T20:28:14.335Z,87.90
2018-03-14T20:30:41.212Z,88.10
2018-03-14T20:33:08.085Z,88.30
2018-03-14T20:35:36.127Z,88.40
2018-03-14T20:38:03.751Z,88.90
2018-03-14T20:40:30.793Z,88.80
2018-03-14T20:42:58.131Z,88.10
2018-03-14T20:45:25.195Z,88.30
2018-03-14T20:47:52.276Z,88.80
2018-03-14T20:50:19.348Z,88.50
2018-03-14T20:52:47.170Z,88.60
2018-03-14T20:55:15.015Z,89.30
2018-03-14T20:57:41.999Z,89.20
2018-03-14T21:00:09.034Z,89.10
2018-03-14T21:02:36.765Z,88.70
2018-03-14T21:05:04.019Z,88.60
2018-03-14T21:07:32.063Z,88.80
2018-03-14T21:09:59.047Z,89.40
2018-03-14T21:12:26.212Z,89.70
2018-03-14T21:14:53.827Z,89.50
2018-03-14T21:17:20.745Z,89.40
2018-03-14T21:19:47.908Z,90.00
2018-03-14T21:22:15.024Z,90.30
2018-03-14T21:24:42.008Z,90.00
2018-03-14T21:27:09.047Z,90.10
2018-03-14T21:29:35.996Z,90.40
2018-03-14T21:32:03.068Z,90.40
2018-03-14T21:34:30.067Z,90.50
2018-03-14T21:36:56.999Z,90.40
2018-03-14T21:39:24.092Z,90.60
2018-03-14T21:41:51.203Z,90.70
2018-03-14T21:44:18.075Z,90.40
2018-03-14T21:46:45.952Z,90.60
2018-03-14T21:49:14.000Z,90.60
2018-03-14T21:51:41.139Z,90.60
2018-03-14T21:54:08.175Z,90.50
2018-03-14T21:56:36.014Z,90.90
2018-03-14T21:59:02.952Z,90.80
2018-03-14T22:01:29.879Z,90.90
2018-03-14T22:03:56.923Z,90.70
2018-03-14T22:06:23.873Z,90.30
2018-03-14T22:08:51.688Z,89.70
2018-03-14T22:11:18.815Z,89.60
2018-03-14T22:13:46.600Z,89.20
2018-03-14T22:16:15.461Z,89.20
2018-03-14T22:18:43.307Z,89.20
2018-03-14T22:21:10.227Z,89.20
2018-03-14T22:23:37.071Z,88.30
2018-03-14T22:26:04.224Z,88.40
2018-03-14T22:28:31.902Z,88.10
2018-03-14T22:30:59.707Z,87.80
2018-03-14T22:33:26.592Z,87.60
2018-03-14T22:35:54.216Z,87.60
2018-03-14T22:38:21.143Z,87.60
2018-03-14T22:40:48.059Z,87.50
2018-03-14T22:43:15.852Z,87.30
2018-03-14T22:45:42.784Z,87.30
2018-03-14T22:48:09.646Z,86.80
2018-03-14T22:50:36.554Z,86.80
2018-03-14T22:53:04.154Z,87.30
2018-03-14T22:55:31.302Z,87.20
2018-03-14T22:57:58.690Z,87.00
2018-03-14T23:00:25.779Z,86.80
2018-03-14T23:02:53.699Z,86.80
2018-03-14T23:05:21.272Z,87.00
2018-03-14T23:07:48.119Z,87.00
2018-03-14T23:10:15.792Z,86.70
2018-03-14T23:12:42.658Z,86.60
2018-03-14T23:15:10.231Z,86.90
2018-03-14T23:17:37.065Z,86.70
2018-03-14T23:20:03.959Z,86.80
2018-03-14T23:22:30.816Z,86.20
2018-03-14T23:24:58.399Z,86.10
2018-03-14T23:27:25.259Z,86.10
2018-03-14T23:29:52.143Z,85.50
2018-03-14T23:32:18.962Z,85.20
2018-03-14T23:34:45.826Z,85.60
2018-03-14T23:37:12.728Z,85.20
2018-03-14T23:39:40.301Z,85.50
2018-03-14T23:42:07.190Z,85.50
2018-03-14T23:44:34.106Z,85.40
2018-03-14T23:47:00.935Z,85.50
2018-03-14T23:49:27.762Z,84.90
2018-03-14T23:51:55.342Z,84.90
2018-03-14T23:54:22.219Z,84.80
2018-03-14T23:56:49.059Z,84.70
2018-03-14T23:59:15.874Z,85.40
